• Join FlightAware (Why Join?)
  • Login
  • US Flag 
02:37PM EST


 

Airport Tracker/Info


-or-


 

Live Flight TrackerFlight Track Log ✈ UAL838 ✈ 20-Jun-2012 ✈ RJAA / NRT - KSFO

Flight Track Log - Related Links

Times and Time Zones

All times are in EDT time to prevent confusion due to time zone crossing. See the UAL838 flight status page for this flight to view local times or setup timezone preferences in your user account.

Time Position Orientation Groundspeed Altitude Reporting Facility
EDT Latitude Longitude Course Direction KTS MPH feet Rate Location/Type
03:31AM 36.1323 141.2889 50° Northeast  Level FlightAware Approximate
03:32AM 36.1916 141.4455 50° Northeast  Level FlightAware Approximate
03:33AM 36.2558 141.5993 50° Northeast  Level FlightAware Approximate
03:34AM 36.3227 141.7513 50° Northeast  Level FlightAware Approximate
03:35AM 36.3845 141.9069 50° Northeast  Level FlightAware Approximate
03:36AM 36.4338 142.0682 50° Northeast  Level FlightAware Approximate
03:37AM 36.5012 142.2198 50° Northeast  Level FlightAware Approximate
03:38AM 36.5625 142.3761 50° Northeast  Level FlightAware Approximate
03:39AM 36.6235 142.5327 50° Northeast  Level FlightAware Approximate
03:40AM 36.6821 142.6907 50° Northeast  Level FlightAware Approximate
03:41AM 36.7428 142.8477 50° Northeast  Level FlightAware Approximate
03:42AM 36.8116 142.9969 50° Northeast  Level FlightAware Approximate
03:43AM 36.8726 143.1565 50° Northeast  Level FlightAware Approximate
03:44AM 36.9333 143.3160 50° Northeast  Level FlightAware Approximate
03:45AM 36.9937 143.4758 50° Northeast  Level FlightAware Approximate
03:46AM 37.0539 143.6355 50° Northeast  Level FlightAware Approximate
03:47AM 37.1138 143.7955 50° Northeast  Level FlightAware Approximate
03:48AM 37.1735 143.9558 50° Northeast  Level FlightAware Approximate
03:49AM 37.4755 144.7791 50° Northeast  Level FlightAware Approximate
03:50AM 37.7716 145.6090 50° Northeast  Level FlightAware Approximate
03:51AM 38.0551 146.4492 49° Northeast  Level FlightAware Approximate
03:52AM 38.3397 147.2921 49° Northeast  Level FlightAware Approximate
03:53AM 38.7626 148.0387 49° Northeast  Level FlightAware Approximate
03:54AM 39.1808 148.7941 49° Northeast  Level FlightAware Approximate
03:55AM 39.5940 149.5586 50° Northeast  Level FlightAware Approximate
03:56AM 40.0589 150.2762 50° Northeast  Level FlightAware Approximate
03:57AM 40.5192 151.0036 51° Northeast  Level FlightAware Approximate
03:58AM 40.9749 151.7410 51° Northeast  Level FlightAware Approximate
03:59AM 41.4259 152.4887 51° Northeast  Level FlightAware Approximate
04:00AM 41.5506 153.3543 50° Northeast  Level FlightAware Approximate
04:01AM 42.0120 154.0972 50° Northeast  Level FlightAware Approximate
04:02AM 42.4686 154.8509 51° Northeast  Level FlightAware Approximate
04:03AM 42.9201 155.6157 51° Northeast  Level FlightAware Approximate
04:04AM 43.3748 156.3801 52° Northeast  Level FlightAware Approximate
04:05AM 43.7954 157.1886 52° Northeast  Level FlightAware Approximate
04:06AM 44.2102 158.0084 52° Northeast  Level FlightAware Approximate
04:07AM 44.6190 158.8398 52° Northeast  Level FlightAware Approximate
04:08AM 45.0217 159.6829 52° Northeast  Level FlightAware Approximate
04:09AM 45.4181 160.5378 50° Northeast  Level FlightAware Approximate
04:10AM 45.8081 161.4048 46° Northeast  Level FlightAware Approximate
04:11AM 45.8843 161.5773 44° Northeast  Level FlightAware Approximate
04:12AM 45.9602 161.7503 40° Northeast  Level FlightAware Approximate
04:13AM 46.0359 161.9238 35° Northeast  Level FlightAware Approximate
04:14AM 46.1113 162.0978 26° Northeast  Level FlightAware Approximate
04:15AM 46.1865 162.2723 North  Level FlightAware Approximate
04:16AM 46.2613 162.4472 330° Northwest  Level FlightAware Approximate
04:17AM 46.3360 162.6226 291° West  Level FlightAware Approximate
04:18AM 46.4103 162.7985 271° West  Level FlightAware Approximate
04:19AM 46.4844 162.9749 262° West  Level FlightAware Approximate
04:20AM 46.5582 163.1517 256° West  Level FlightAware Approximate
04:21AM 46.6317 163.3290 253° West  Level FlightAware Approximate
04:22AM 46.7049 163.5068 251° West  Level FlightAware Approximate
04:23AM 46.7779 163.6851 249° West  Level FlightAware Approximate
04:24AM 46.8506 163.8639 248° West  Level FlightAware Approximate
04:25AM 46.9230 164.0432 247° West  Level FlightAware Approximate
04:26AM 46.9952 164.2229 247° West  Level FlightAware Approximate
04:27AM 47.0671 164.4031 246° West  Level FlightAware Approximate
04:28AM 47.1350 164.5868 246° West  Level FlightAware Approximate
04:29AM 47.2026 164.7710 246° West  Level FlightAware Approximate
04:30AM 47.2700 164.9556 246° West  Level FlightAware Approximate
04:31AM 47.3371 165.1407 246° West  Level FlightAware Approximate
04:32AM 47.4038 165.3263 245° Southwest  Level FlightAware Approximate
04:33AM 47.4703 165.5124 245° Southwest  Level FlightAware Approximate
04:34AM 47.5364 165.6989 245° Southwest  Level FlightAware Approximate
04:35AM 47.6023 165.8859 245° Southwest  Level FlightAware Approximate
04:36AM 47.6679 166.0733 245° Southwest  Level FlightAware Approximate
04:37AM 47.7331 166.2612 245° Southwest  Level FlightAware Approximate
04:38AM 47.7980 166.4496 245° Southwest  Level FlightAware Approximate
04:39AM 47.8627 166.6385 245° Southwest  Level FlightAware Approximate
04:40AM 47.9270 166.8279 245° Southwest  Level FlightAware Approximate
04:41AM 47.9910 167.0177 245° Southwest  Level FlightAware Approximate
04:42AM 48.0547 167.2080 246° West  Level FlightAware Approximate
04:43AM 48.1181 167.3987 246° West  Level FlightAware Approximate
04:44AM 48.1811 167.5900 246° West  Level FlightAware Approximate
04:45AM 48.2439 167.7816 246° West  Level FlightAware Approximate
04:46AM 48.3063 167.9738 246° West  Level FlightAware Approximate
04:47AM 48.3684 168.1664 246° West  Level FlightAware Approximate
04:48AM 48.4302 168.3595 246° West  Level FlightAware Approximate
04:49AM 48.4916 168.5531 246° West  Level FlightAware Approximate
04:50AM 48.5527 168.7471 246° West  Level FlightAware Approximate
04:51AM 48.6780 168.8049 245° Southwest  Level FlightAware Approximate
04:52AM 48.7367 169.0014 245° Southwest  Level FlightAware Approximate
04:53AM 48.7950 169.1983 245° Southwest  Level FlightAware Approximate
04:54AM 48.8530 169.3957 246° West  Level FlightAware Approximate
04:55AM 48.9106 169.5936 246° West  Level FlightAware Approximate
04:56AM 48.9679 169.7919 246° West  Level FlightAware Approximate
04:57AM 49.0249 169.9907 246° West  Level FlightAware Approximate
04:58AM 49.0815 170.1899 246° West  Level FlightAware Approximate
04:59AM 49.1378 170.3896 246° West  Level FlightAware Approximate
05:00AM 49.1937 170.5897 247° West  Level FlightAware Approximate
05:01AM 49.2493 170.7903 247° West  Level FlightAware Approximate
05:02AM 49.3045 170.9914 247° West  Level FlightAware Approximate
05:03AM 49.3594 171.1929 247° West  Level FlightAware Approximate
05:04AM 49.4140 171.3948 247° West  Level FlightAware Approximate
05:05AM 49.4681 171.5972 247° West  Level FlightAware Approximate
05:06AM 49.5220 171.8000 248° West  Level FlightAware Approximate
05:07AM 49.5754 172.0033 248° West  Level FlightAware Approximate
05:08AM 49.6286 172.2070 248° West  Level FlightAware Approximate
05:09AM 49.6813 172.4112 248° West  Level FlightAware Approximate
05:10AM 49.7337 172.6158 248° West  Level FlightAware Approximate
05:11AM 49.7858 172.8208 248° West  Level FlightAware Approximate
05:12AM 49.8374 173.0263 248° West  Level FlightAware Approximate
05:13AM 49.8887 173.2323 249° West  Level FlightAware Approximate
05:14AM 49.9397 173.4386 249° West  Level FlightAware Approximate
05:15AM 49.9903 173.6454 249° West  Level FlightAware Approximate
05:16AM 50.0405 173.8526 249° West  Level FlightAware Approximate
05:17AM 50.0903 174.0603 249° West  Level FlightAware Approximate
05:18AM 50.1398 174.2684 249° West  Level FlightAware Approximate
05:19AM 50.1889 174.4769 250° West  Level FlightAware Approximate
05:20AM 50.2376 174.6859 250° West  Level FlightAware Approximate
05:21AM 50.2860 174.8953 250° West  Level FlightAware Approximate
05:22AM 50.3339 175.1051 250° West  Level FlightAware Approximate
05:23AM 50.3815 175.3153 250° West  Level FlightAware Approximate
05:24AM 50.4287 175.5260 250° West  Level FlightAware Approximate
05:25AM 50.4756 175.7370 251° West  Level FlightAware Approximate
05:26AM 50.5050 175.9557 251° West  Level FlightAware Approximate
05:27AM 50.5701 176.1548 251° West  Level FlightAware Approximate
05:28AM 50.6348 176.3544 251° West  Level FlightAware Approximate
05:29AM 50.6993 176.5546 251° West  Level FlightAware Approximate
05:30AM 50.7634 176.7553 251° West  Level FlightAware Approximate
05:31AM 50.8271 176.9566 251° West  Level FlightAware Approximate
05:32AM 50.8905 177.1585 251° West  Level FlightAware Approximate
05:33AM 50.9536 177.3609 251° West  Level FlightAware Approximate
05:34AM 51.0163 177.5638 251° West  Level FlightAware Approximate
05:35AM 51.0786 177.7673 251° West  Level FlightAware Approximate
05:36AM 51.1406 177.9713 251° West  Level FlightAware Approximate
05:37AM 51.2023 178.1759 252° West  Level FlightAware Approximate
05:38AM 51.2635 178.3811 252° West  Level FlightAware Approximate
05:39AM 51.3245 178.5867 252° West  Level FlightAware Approximate
05:40AM 51.3850 178.7930 252° West  Level FlightAware Approximate
05:41AM 51.4452 178.9997 252° West  Level FlightAware Approximate
05:42AM 51.5051 179.2071 252° West  Level FlightAware Approximate
05:43AM 51.5645 179.4149 252° West  Level FlightAware Approximate
05:44AM 51.6236 179.6233 252° West  Level FlightAware Approximate
05:45AM 51.6824 179.8323 252° West  Level FlightAware Approximate
05:46AM 51.7407 -179.9583 252° West  Level FlightAware Approximate
05:47AM 46.4167 162.3167 54° Northeast 501 577 36,000  Level Anchorage Center
05:47AM 46.4333 162.3500 60° Northeast 501 577 36,000  Level Anchorage Center
06:00AM 47.3500 164.7833 62° Northeast 496 571 36,000  Level Anchorage Center
06:14AM 48.2000 167.2833 64° Northeast 497 572 36,000  Level Anchorage Center
06:22AM 48.6833 168.7833 66° East 512 589 36,000  Level Anchorage Center
06:28AM 49.0167 169.9333 68° East 524 603 36,000  Level Anchorage Center
06:34AM 49.3167 171.1167 67° East 560 644 36,000  Level Anchorage Center
06:39AM 49.6000 172.1500 74° East 530 610 36,000  Level Anchorage Center
06:40AM 49.6333 172.3333 66° East 530 610 36,000  Level Anchorage Center
06:41AM 49.7000 172.5667 67° East 540 621 36,000  Level Anchorage Center
06:42AM 49.7500 172.7500 72° East 540 621 36,000  Level Anchorage Center
06:43AM 49.8000 172.9833 67° East 540 621 36,000  Level Anchorage Center
06:44AM 49.8500 173.1667 72° East 530 610 36,000  Level Anchorage Center
06:45AM 49.9000 173.4000 66° East 530 610 36,000  Level Anchorage Center
06:46AM 49.9667 173.6333 74° East 530 610 36,000  Level Anchorage Center
06:47AM 50.0000 173.8167 67° East 530 610 36,000  Level Anchorage Center
06:48AM 50.0667 174.0667 67° East 540 621 36,000  Level Anchorage Center
06:49AM 50.1167 174.2500 71° East 540 621 36,000  Level Anchorage Center
06:50AM 50.1667 174.4833 75° East 540 621 36,000  Level Anchorage Center
06:51AM 50.2000 174.6833 66° East 530 610 36,000  Level Anchorage Center
06:52AM 50.2667 174.9167 73° East 530 610 36,000  Level Anchorage Center
06:53AM 50.3000 175.0833 74° East 510 587 36,000  Level Anchorage Center
06:54AM 50.3500 175.3500 64° Northeast 560 644 36,000  Level Anchorage Center
06:55AM 50.4167 175.5667 75° East 530 610 36,000  Level Anchorage Center
06:56AM 50.4500 175.7667 71° East 540 621 36,000  Level Anchorage Center
06:57AM 50.5000 176.0000 68° East 540 621 36,000  Level Anchorage Center
06:58AM 50.5500 176.2000 71° East 530 610 36,000  Level Anchorage Center
06:59AM 50.6000 176.4333 74° East 530 610 36,000  Level Anchorage Center
07:00AM 50.6333 176.6167 72° East 520 598 36,000  Level Anchorage Center
07:01AM 50.6833 176.8667 71° East 530 610 36,000  Level Anchorage Center
07:02AM 50.7333 177.1000 67° East 530 610 36,000  Level Anchorage Center
07:03AM 50.7833 177.2833 72° East 530 610 36,000  Level Anchorage Center
07:04AM 50.8333 177.5333 74° East 520 598 36,000  Level Anchorage Center
07:05AM 50.8667 177.7167 71° East 520 598 36,000  Level Anchorage Center
07:06AM 50.9167 177.9500 74° East 530 610 36,000  Level Anchorage Center
07:07AM 50.9500 178.1333 72° East 510 587 36,000  Level Anchorage Center
07:08AM 51.0000 178.3833 74° East 530 610 36,000  Level Anchorage Center
07:09AM 51.0333 178.5667 72° East 520 598 36,000  Level Anchorage Center
07:10AM 51.0833 178.8167 73° East 520 598 36,000  Level Anchorage Center
07:12AM 51.1667 179.2500 71° East 490 564 36,000  Level Anchorage Center
07:13AM 51.2167 179.4833 75° East 510 587 36,000  Level Anchorage Center
07:14AM 51.2500 179.6833 72° East 520 598 36,000  Level Anchorage Center
07:15AM 51.3000 179.9333 76° East 520 598 36,000  Level Anchorage Center
07:16AM 51.3333 -179.8500 73° East 520 598 36,000  Level Anchorage Center
07:23AM 51.6500 -178.1167 76° East 524 603 36,000  Level Anchorage Center
07:30AM 51.8667 -176.6833 86° East 513 590 36,000 60 Level Anchorage Center
07:37AM 51.9333 -174.9667 87° East 508 585 37,000  Climbing Anchorage Center
07:51AM 52.0000 -171.8500 89° East 501 577 37,000  Level Anchorage Center
08:00AM 52.0000 -170.0000 96° East 514 592 37,000  Level Anchorage Center
08:05AM 51.9167 -168.7500 96° East 520 598 37,000  Level Anchorage Center
08:25AM 51.5500 -164.3000 100° East 534 615 37,000  Level Oakland Oceanic (ODAPS)
08:39AM 51.1500 -161.0667 102° East 546 628 37,000  Level Oakland Oceanic (ODAPS)
08:44AM 51.0000 -160.0000 103° East 559 643 37,000  Level Oakland Oceanic (ODAPS)
08:52AM 50.6500 -157.7833 360° North 559 643 37,000  Level Oakland Oceanic (ODAPS)
08:52AM 50.6500 -157.7833 105° East 562 647 37,000  Level Oakland Oceanic (ODAPS)
09:06AM 50.0333 -154.5000 108° East 573 659 37,000  Level Oakland Oceanic (ODAPS)
09:20AM 49.3167 -151.2833 110° East 578 665 37,000  Level Oakland Oceanic (ODAPS)
09:26AM 49.0000 -150.0000 116° Southeast 574 661 37,000  Level Oakland Oceanic (ODAPS)
09:34AM 48.4000 -148.2167 118° Southeast 574 661 37,000  Level Oakland Oceanic (ODAPS)
09:48AM 47.3167 -145.3333 120° Southeast 572 658 37,000  Level Oakland Oceanic (ODAPS)
10:02AM 46.1833 -142.5833 122° Southeast 565 650 37,000  Level Oakland Oceanic (ODAPS)
10:16AM 45.0000 -140.0000 109° East 558 642 37,000  Level Oakland Oceanic (ODAPS)
10:29AM 44.2667 -137.1667 111° Southeast 541 623 38,000  Climbing Oakland Oceanic (ODAPS)
10:43AM 43.4833 -134.4833 113° Southeast 535 616 38,000  Level Oakland Oceanic (ODAPS)
10:57AM 42.6667 -131.9167 115° Southeast 526 605 38,000  Level Oakland Oceanic (ODAPS)
11:08AM 42.0000 -130.0000 119° Southeast 522 601 38,000  Level Oakland Oceanic (ODAPS)
11:11AM 41.7833 -129.4833 121° Southeast 508 585 38,000  Level Oakland Oceanic (ODAPS)
11:25AM 40.7333 -127.2333 119° Southeast 528 608 38,000  Level Oakland Oceanic (ODAPS)
11:34AM 40.0544 -125.6386 120° Southeast 493 567 38,000  Level Oakland Center
11:38AM 39.7594 -124.9842 134° Southeast 522 601 38,000  Level Oakland Center
11:39AM 39.6597 -124.8519 136° Southeast 511 588 38,000  Level Oakland Center
11:40AM 39.5575 -124.7222 135° Southeast 511 588 38,000  Level Oakland Center
11:41AM 39.4572 -124.5933 134° Southeast 511 588 38,000  Level Oakland Center
11:42AM 39.3689 -124.4761 135° Southeast 504 580 38,000  Level Oakland Center
11:43AM 39.2706 -124.3478 138° Southeast 504 580 38,000  Level Oakland Center
11:44AM 39.1514 -124.2083 136° Southeast 520 598 38,000  Level Oakland Center
11:45AM 39.0506 -124.0833 136° Southeast 520 598 38,000 -60 Level Oakland Center
11:46AM 38.9494 -123.9561 135° Southeast 515 593 37,900 -780 Descending Oakland Center
11:47AM 38.8625 -123.8431 136° Southeast 508 585 36,500 -1,500 Descending Oakland Center
11:48AM 38.7592 -123.7167 136° Southeast 508 585 34,900 -1,620 Descending Oakland Center
11:49AM 38.6558 -123.5875 137° Southeast 515 593 33,400 -2,340 Descending Oakland Center
11:50AM 38.5542 -123.4644 136° Southeast 515 593 30,300 -3,360 Descending Oakland Center
11:51AM 38.4525 -123.3389 137° Southeast 515 593 26,700 -3,480 Descending Oakland Center
11:52AM 38.3525 -123.2192 136° Southeast 509 586 23,500 -3,180 Descending Oakland Center
11:53AM 38.2589 -123.1053 137° Southeast 490 564 20,400 -2,340 Descending Oakland Center
11:54AM 38.1689 -122.9997 136° Southeast 466 536 18,900 -720 Descending Oakland Center
11:55AM 38.0911 -122.9053 139° Southeast 420 483 19,000 -1,020 Climbing Oakland Center
11:56AM 38.0092 -122.8133 135° Southeast 397 457 16,900 -2,280 Descending Oakland Center
11:58AM 37.9253 -122.7086 139° Southeast 375 432 14,100 -2,400 Descending Oakland Center
11:59AM 37.8533 -122.6306 137° Southeast 359 413 11,600 -1,800 Descending Oakland Center
11:59AM 37.8000 -122.5667 135° Southeast 335 386 11,000 -360 Descending Northern Cal TRACON
12:00PM 37.7333 -122.4833 117° Southeast 310 357 11,000 -300 Level Northern Cal TRACON
12:01PM 37.7000 -122.4000 122° Southeast 244 281 10,500 -1,080 Descending Northern Cal TRACON
12:02PM 37.6667 -122.3333 122° Southeast 220 253 8,900 -1,800 Descending Northern Cal TRACON
12:03PM 37.6333 -122.2667 107° East 229 264 6,900 -1,500 Descending Northern Cal TRACON
12:04PM 37.6167 -122.2000 122° Southeast 213 245 6,000 -480 Descending Northern Cal TRACON
12:05PM 37.5833 -122.1333 165° South 209 241 6,000 -180 Level Northern Cal TRACON
12:06PM 37.5333 -122.1167 270° West 219 252 5,700 -960 Descending Northern Cal TRACON
12:07PM 37.5333 -122.1667 302° West 199 229 4,100 -1,620 Descending Northern Cal TRACON
12:08PM 37.5667 -122.2333 302° West 193 222 2,500 -1,620 Descending Northern Cal TRACON